Time;durP1;ratioP1;P1;durP2;ratioP2;P2;SDS_P1;SDS_P2;PMS_P1;PMS_P2;Temp;Humidity;BMP_temperature;BMP_pressure;BME280_temperature;BME280_humidity;BME280_pressure;Samples;Min_cycle;Max_cycle;Signal;HPM_P1;HPM_P2
2023/06/18 00:02:00;;;;;;;5.57;3.30;;;22.20;48.30;;;;;;5059525;28;20036;-78
2023/06/18 00:04:26;;;;;;;6.63;3.47;;;22.30;49.00;;;;;;5059983;28;20060;-83
2023/06/18 00:06:55;;;;;;;8.10;3.10;;;22.30;48.90;;;;;;5060331;28;20039;-84
2023/06/18 00:09:21;;;;;;;7.13;3.50;;;22.30;49.10;;;;;;5075320;28;20068;-84
2023/06/18 00:11:48;;;;;;;5.90;3.40;;;22.30;48.70;;;;;;5058810;28;20053;-84
2023/06/18 00:14:14;;;;;;;5.82;3.53;;;22.30;48.60;;;;;;5059461;28;20506;-86
2023/06/18 00:16:40;;;;;;;6.25;3.72;;;22.30;48.60;;;;;;5059559;28;20114;-83
2023/06/18 00:19:06;;;;;;;8.57;3.60;;;22.30;48.60;;;;;;5060258;28;20040;-81
2023/06/18 00:21:31;;;;;;;8.85;3.70;;;22.30;48.80;;;;;;5062967;28;20044;-83
2023/06/18 00:23:57;;;;;;;7.30;4.03;;;22.20;48.60;;;;;;5057546;28;20033;-81
2023/06/18 00:26:25;;;;;;;10.40;3.70;;;22.20;48.80;;;;;;5062223;28;20029;-83
2023/06/18 00:28:52;;;;;;;5.85;3.50;;;22.20;48.70;;;;;;5064380;28;20032;-85
2023/06/18 00:31:19;;;;;;;5.60;3.65;;;22.10;48.60;;;;;;5062623;28;20039;-82
2023/06/18 00:33:45;;;;;;;4.53;3.47;;;22.10;48.70;;;;;;5060312;28;20052;-79
2023/06/18 00:36:12;;;;;;;7.22;3.70;;;22.00;48.80;;;;;;5076812;28;20528;-81
2023/06/18 00:38:42;;;;;;;5.13;3.40;;;22.00;48.80;;;;;;5055087;28;20033;-82
2023/06/18 00:41:09;;;;;;;6.45;3.30;;;22.00;48.70;;;;;;5058214;28;20461;-82
2023/06/18 00:43:36;;;;;;;5.50;3.15;;;22.00;48.60;;;;;;5063176;28;20043;-79
2023/06/18 00:46:04;;;;;;;5.22;3.33;;;22.00;48.50;;;;;;5058329;28;20161;-83
2023/06/18 00:48:32;;;;;;;4.38;3.08;;;21.90;48.70;;;;;;5075217;28;20036;-83
2023/06/18 00:51:01;;;;;;;6.20;3.38;;;21.90;48.80;;;;;;5058405;28;20025;-83
2023/06/18 00:53:28;;;;;;;7.25;3.58;;;21.90;48.80;;;;;;5060322;28;20029;-82
2023/06/18 00:55:56;;;;;;;6.85;3.38;;;21.90;48.90;;;;;;5076083;28;20028;-85
2023/06/18 00:58:25;;;;;;;5.55;3.50;;;21.80;48.90;;;;;;5059837;28;20025;-85
2023/06/18 01:00:51;;;;;;;7.60;4.13;;;21.80;48.90;;;;;;5057674;28;20125;-84
2023/06/18 01:03:21;;;;;;;5.97;3.75;;;21.80;49.00;;;;;;5058430;28;20033;-80
2023/06/18 01:05:57;;;;;;;5.57;3.95;;;21.80;49.10;;;;;;5061936;28;20455;-87
2023/06/18 01:08:24;;;;;;;6.38;3.97;;;21.80;49.10;;;;;;5061401;28;20501;-83
2023/06/18 01:11:06;;;;;;;9.30;4.32;;;21.70;49.10;;;;;;5059250;28;20044;-87
2023/06/18 01:13:36;;;;;;;6.10;4.00;;;21.70;49.70;;;;;;5064460;28;20025;-84
2023/06/18 01:16:06;;;;;;;5.00;3.67;;;21.70;49.20;;;;;;5059672;28;20116;-86
2023/06/18 01:18:36;;;;;;;7.28;3.90;;;21.70;49.20;;;;;;5059497;28;20464;-81
2023/06/18 01:21:09;;;;;;;6.50;3.67;;;21.70;49.30;;;;;;5063400;28;20036;-85
2023/06/18 01:24:09;;;;;;;6.18;3.55;;;21.70;49.40;;;;;;5058548;28;20028;-81
2023/06/18 01:26:36;;;;;;;6.75;3.70;;;21.70;49.40;;;;;;5058495;28;20041;-84
2023/06/18 01:29:02;;;;;;;7.53;3.70;;;21.70;49.50;;;;;;5062226;28;20059;-83
2023/06/18 01:31:36;;;;;;;5.22;3.53;;;21.70;49.40;;;;;;5063493;28;20032;-84
2023/06/18 01:34:04;;;;;;;7.50;3.10;;;21.70;49.50;;;;;;5072655;28;20476;-85
2023/06/18 01:36:37;;;;;;;7.53;3.78;;;21.70;49.40;;;;;;5059296;28;20531;-85
2023/06/18 01:39:42;;;;;;;8.32;3.58;;;21.80;49.50;;;;;;5057859;28;20044;-85
2023/06/18 01:42:16;;;;;;;5.70;3.60;;;21.80;49.50;;;;;;5012564;28;20053;-84
2023/06/18 01:44:52;;;;;;;8.25;3.60;;;21.90;49.50;;;;;;5014825;28;20124;-84
2023/06/18 01:47:20;;;;;;;6.97;3.80;;;21.90;49.40;;;;;;4996229;28;20033;-82
2023/06/18 01:49:47;;;;;;;5.88;3.30;;;21.90;49.30;;;;;;5013957;28;20089;-84
2023/06/18 01:52:17;;;;;;;8.82;3.72;;;21.90;49.20;;;;;;5014832;28;20030;-85
2023/06/18 01:54:46;;;;;;;6.07;3.88;;;21.90;49.40;;;;;;5017659;28;20119;-84
2023/06/18 01:57:14;;;;;;;6.60;3.55;;;21.90;49.20;;;;;;5007099;28;20036;-86
2023/06/18 01:59:43;;;;;;;6.07;3.70;;;21.90;49.30;;;;;;5009420;28;20045;-83
2023/06/18 02:02:10;;;;;;;5.55;3.42;;;21.80;49.30;;;;;;5018931;28;20041;-85
2023/06/18 02:04:37;;;;;;;4.82;3.00;;;21.90;49.30;;;;;;5015921;28;20040;-84
2023/06/18 02:07:03;;;;;;;6.50;3.35;;;21.90;49.10;;;;;;5018138;28;20065;-85
2023/06/18 02:09:29;;;;;;;5.90;3.45;;;21.90;49.20;;;;;;5007786;28;20041;-80
2023/06/18 02:11:56;;;;;;;5.95;3.70;;;21.90;48.90;;;;;;5016864;28;20052;-76
2023/06/18 02:14:22;;;;;;;6.10;3.25;;;22.00;48.90;;;;;;5000122;28;20034;-82
2023/06/18 02:16:48;;;;;;;5.18;3.05;;;22.10;48.60;;;;;;5016295;28;20037;-81
2023/06/18 02:19:16;;;;;;;7.22;3.42;;;22.20;48.50;;;;;;5044521;28;20063;-83
2023/06/18 02:21:42;;;;;;;4.20;2.97;;;22.30;48.40;;;;;;5065695;28;20078;-84
2023/06/18 02:24:09;;;;;;;3.80;2.95;;;22.30;48.30;;;;;;5057667;28;20028;-80
2023/06/18 02:26:34;;;;;;;6.00;3.10;;;22.50;48.20;;;;;;5061860;28;20139;-80
2023/06/18 02:29:00;;;;;;;4.53;3.20;;;22.50;47.80;;;;;;5062842;28;20128;-80
2023/06/18 02:31:26;;;;;;;6.10;2.65;;;22.60;47.50;;;;;;5062206;28;20679;-85
2023/06/18 02:33:53;;;;;;;5.38;3.00;;;22.70;47.50;;;;;;5065063;28;20111;-78
2023/06/18 02:36:19;;;;;;;8.63;3.13;;;22.70;47.20;;;;;;5061514;28;20124;-81
2023/06/18 02:38:45;;;;;;;5.72;3.03;;;22.70;47.20;;;;;;5079206;28;20070;-82
2023/06/18 02:41:11;;;;;;;7.50;3.03;;;22.70;47.10;;;;;;5065566;28;20041;-78
2023/06/18 02:43:37;;;;;;;5.68;2.83;;;22.70;47.00;;;;;;5063160;28;20055;-81
2023/06/18 02:46:03;;;;;;;6.13;3.10;;;22.70;46.90;;;;;;5062407;28;20047;-82
2023/06/18 02:48:29;;;;;;;5.47;3.00;;;22.70;46.80;;;;;;5076992;28;21481;-78
2023/06/18 02:50:55;;;;;;;4.95;2.80;;;22.80;46.80;;;;;;5066107;28;20506;-76
2023/06/18 02:53:21;;;;;;;4.15;2.90;;;22.70;46.80;;;;;;5064742;28;20464;-81
2023/06/18 02:55:47;;;;;;;5.03;2.63;;;22.70;46.60;;;;;;5064760;28;20108;-83
2023/06/18 02:58:17;;;;;;;6.78;2.75;;;22.60;46.50;;;;;;5064360;28;20116;-83
2023/06/18 03:00:44;;;;;;;5.18;2.75;;;22.70;46.40;;;;;;5076102;28;20052;-80
2023/06/18 03:03:11;;;;;;;6.07;3.58;;;22.70;46.50;;;;;;5046546;28;20044;-79
2023/06/18 03:05:41;;;;;;;6.47;2.90;;;22.70;46.10;;;;;;5079287;28;20078;-83
2023/06/18 03:08:07;;;;;;;4.40;2.50;;;22.80;46.10;;;;;;5076300;28;20032;-79
2023/06/18 03:10:33;;;;;;;4.80;2.97;;;22.90;46.50;;;;;;5075981;28;20072;-80
2023/06/18 03:12:59;;;;;;;3.92;2.60;;;22.90;46.40;;;;;;5064448;28;20060;-79
2023/06/18 03:15:46;;;;;;;8.48;3.03;;;22.90;46.30;;;;;;5060711;28;20059;-81
2023/06/18 03:18:13;;;;;;;4.95;2.88;;;22.90;46.10;;;;;;5063091;28;20033;-80
2023/06/18 03:20:42;;;;;;;5.72;2.97;;;22.90;46.10;;;;;;5075864;28;20120;-80
2023/06/18 03:23:08;;;;;;;4.15;2.60;;;23.00;46.00;;;;;;5056238;28;20039;-80
2023/06/18 03:25:35;;;;;;;6.10;2.70;;;23.00;46.00;;;;;;5077675;28;20097;-80
2023/06/18 03:28:01;;;;;;;5.72;3.25;;;23.10;46.00;;;;;;5064123;28;20036;-83
2023/06/18 03:30:32;;;;;;;6.30;2.85;;;23.00;45.80;;;;;;5075110;28;21403;-76
2023/06/18 03:33:02;;;;;;;4.65;2.50;;;23.10;45.90;;;;;;5061873;28;20040;-77
2023/06/18 03:35:29;;;;;;;9.15;2.80;;;23.20;46.00;;;;;;5077362;28;20127;-80
2023/06/18 03:37:55;;;;;;;6.05;2.75;;;23.30;45.50;;;;;;5056694;28;20032;-80
2023/06/18 03:40:24;;;;;;;5.65;2.70;;;23.50;45.50;;;;;;5057736;28;20040;-77
2023/06/18 03:42:49;;;;;;;4.45;2.63;;;23.60;45.60;;;;;;5058500;28;20056;-78
2023/06/18 03:45:21;;;;;;;4.65;2.90;;;23.80;45.10;;;;;;5062340;28;20032;-79
2023/06/18 03:47:47;;;;;;;5.93;3.00;;;23.90;45.00;;;;;;5075096;28;20471;-79
2023/06/18 03:50:13;;;;;;;4.82;2.67;;;24.10;44.90;;;;;;5063116;28;20047;-78
2023/06/18 03:52:40;;;;;;;7.28;3.33;;;24.30;45.50;;;;;;5063379;28;20033;-79
2023/06/18 03:55:08;;;;;;;5.43;2.70;;;24.40;45.70;;;;;;5060317;28;20167;-80
2023/06/18 03:57:35;;;;;;;4.43;2.53;;;24.60;45.90;;;;;;5063000;28;20029;-80
2023/06/18 04:00:04;;;;;;;4.93;2.88;;;24.80;45.40;;;;;;5077413;28;20040;-81
2023/06/18 04:02:38;;;;;;;4.22;2.50;;;25.00;44.90;;;;;;5063210;28;20066;-80
2023/06/18 04:05:08;;;;;;;4.57;2.70;;;25.10;44.70;;;;;;5047207;28;20131;-80
2023/06/18 04:07:35;;;;;;;6.38;2.85;;;25.30;44.30;;;;;;5058607;28;20041;-79
2023/06/18 04:10:01;;;;;;;4.15;2.80;;;25.40;44.30;;;;;;5076069;28;20051;-82
2023/06/18 04:12:27;;;;;;;3.58;2.50;;;25.50;44.40;;;;;;5063678;28;20040;-79
2023/06/18 04:14:53;;;;;;;5.97;2.80;;;25.70;43.70;;;;;;5062843;28;20450;-80
2023/06/18 04:17:19;;;;;;;5.03;3.05;;;25.80;42.90;;;;;;5060082;28;20127;-82
2023/06/18 04:19:44;;;;;;;5.03;3.35;;;26.00;42.40;;;;;;5064122;28;20503;-80
2023/06/18 04:22:11;;;;;;;6.28;2.85;;;26.10;43.10;;;;;;5064196;28;21226;-82
2023/06/18 04:24:41;;;;;;;4.80;3.10;;;26.20;42.60;;;;;;5079250;28;20028;-83
2023/06/18 04:27:08;;;;;;;5.68;3.20;;;26.30;43.00;;;;;;5066473;28;20415;-81
2023/06/18 04:29:35;;;;;;;3.63;2.80;;;26.40;43.10;;;;;;5079136;28;20515;-79
2023/06/18 04:32:02;;;;;;;4.25;2.80;;;26.60;43.20;;;;;;5066121;28;20443;-82
2023/06/18 04:34:28;;;;;;;6.45;2.83;;;26.70;43.30;;;;;;5070129;28;20012;-81
2023/06/18 04:36:55;;;;;;;4.47;2.70;;;26.90;43.10;;;;;;5083518;28;20032;-78
2023/06/18 04:39:21;;;;;;;5.38;3.00;;;27.00;42.20;;;;;;5089238;28;20273;-78
2023/06/18 04:41:47;;;;;;;4.95;2.78;;;27.10;42.40;;;;;;5061348;28;20132;-79
2023/06/18 04:44:13;;;;;;;4.65;2.42;;;27.20;42.60;;;;;;5059448;28;20072;-80
2023/06/18 04:46:42;;;;;;;4.57;2.50;;;27.30;43.00;;;;;;5065237;28;20060;-82
2023/06/18 04:49:08;;;;;;;3.47;2.33;;;27.40;43.00;;;;;;5056384;28;20032;-83
2023/06/18 04:51:34;;;;;;;3.65;2.17;;;27.50;43.30;;;;;;5058844;28;20393;-81
2023/06/18 04:54:03;;;;;;;3.83;2.33;;;27.60;42.70;;;;;;5062818;28;20037;-80
2023/06/18 04:56:29;;;;;;;3.75;2.60;;;27.80;41.70;;;;;;5056757;28;20032;-81
2023/06/18 04:58:55;;;;;;;3.55;2.58;;;27.90;42.10;;;;;;5038740;28;20075;-80
2023/06/18 05:01:21;;;;;;;3.42;2.33;;;28.00;42.00;;;;;;5063704;28;20087;-82
2023/06/18 05:03:47;;;;;;;3.78;2.20;;;28.10;41.60;;;;;;5064355;28;20045;-79
2023/06/18 05:06:14;;;;;;;4.15;2.28;;;28.20;41.90;;;;;;5063412;28;20033;-78
2023/06/18 05:08:40;;;;;;;5.53;2.67;;;28.30;41.80;;;;;;5057749;28;20048;-82
2023/06/18 05:11:06;;;;;;;3.03;2.03;;;28.50;40.90;;;;;;5075384;28;20048;-81
2023/06/18 05:13:34;;;;;;;3.95;2.10;;;28.50;40.40;;;;;;5062151;28;20033;-81
2023/06/18 05:16:00;;;;;;;4.28;2.15;;;28.60;40.90;;;;;;5045391;28;20094;-81
2023/06/18 05:18:28;;;;;;;3.45;1.98;;;28.70;41.20;;;;;;5058790;28;20495;-81
2023/06/18 05:20:54;;;;;;;3.20;2.22;;;28.90;41.80;;;;;;5054302;28;20510;-79
2023/06/18 05:23:22;;;;;;;3.60;2.20;;;29.00;41.40;;;;;;5056135;28;20047;-79
2023/06/18 05:25:51;;;;;;;4.40;2.03;;;29.10;40.60;;;;;;5063019;28;20048;-80
2023/06/18 05:28:19;;;;;;;2.17;1.80;;;29.20;39.50;;;;;;5061238;28;20067;-80
2023/06/18 05:30:46;;;;;;;2.13;1.83;;;29.30;37.50;;;;;;5080210;28;20538;-80
2023/06/18 05:33:13;;;;;;;4.57;2.28;;;29.40;36.80;;;;;;5065322;28;20029;-79
2023/06/18 05:35:41;;;;;;;2.97;2.10;;;29.40;38.70;;;;;;5079048;28;20031;-80
2023/06/18 05:38:07;;;;;;;3.15;1.88;;;29.50;39.70;;;;;;5063673;28;20529;-78
2023/06/18 05:40:34;;;;;;;2.17;1.75;;;29.60;39.80;;;;;;5059469;28;20037;-77
2023/06/18 05:43:02;;;;;;;2.42;1.70;;;29.70;39.60;;;;;;5059144;28;20037;-82
2023/06/18 05:45:35;;;;;;;2.78;2.03;;;29.80;39.50;;;;;;5079608;28;20029;-81
2023/06/18 05:48:01;;;;;;;3.80;2.15;;;29.90;39.40;;;;;;5065997;28;20114;-81
2023/06/18 05:50:39;;;;;;;3.80;2.30;;;30.00;37.90;;;;;;5057633;28;20037;-80
2023/06/18 05:53:05;;;;;;;4.38;2.00;;;30.10;36.80;;;;;;5063920;28;20047;-83
2023/06/18 05:55:31;;;;;;;2.50;2.00;;;30.20;37.80;;;;;;5062408;28;20075;-83
2023/06/18 05:57:57;;;;;;;3.55;2.30;;;30.30;38.50;;;;;;5079368;28;20024;-82
2023/06/18 06:00:23;;;;;;;4.25;1.85;;;30.30;36.70;;;;;;5061583;28;20037;-81
2023/06/18 06:02:50;;;;;;;6.82;2.38;;;30.30;36.30;;;;;;5064867;28;20033;-82
2023/06/18 06:05:20;;;;;;;5.30;2.38;;;30.40;35.70;;;;;;5077077;28;20025;-81
2023/06/18 06:07:47;;;;;;;3.55;2.05;;;30.50;35.50;;;;;;5064905;28;20040;-82
2023/06/18 06:10:17;;;;;;;4.10;2.17;;;30.60;35.60;;;;;;5065426;28;20053;-82
2023/06/18 06:12:43;;;;;;;4.60;2.35;;;30.60;37.00;;;;;;5064776;28;20064;-81
2023/06/18 06:15:10;;;;;;;4.20;2.60;;;30.70;36.40;;;;;;5075946;28;20407;-81
2023/06/18 06:17:36;;;;;;;4.40;2.13;;;30.80;35.50;;;;;;5065093;28;20039;-76
2023/06/18 06:20:03;;;;;;;3.70;2.42;;;30.90;36.00;;;;;;5065400;28;20055;-82
2023/06/18 06:22:29;;;;;;;5.43;2.17;;;30.90;34.70;;;;;;5062084;28;20067;-81
2023/06/18 06:24:55;;;;;;;9.15;2.60;;;30.90;34.60;;;;;;5077302;28;20037;-80
2023/06/18 06:27:21;;;;;;;3.20;2.20;;;30.90;34.40;;;;;;5061080;28;20044;-82
2023/06/18 06:29:47;;;;;;;3.15;2.15;;;31.00;34.70;;;;;;5062880;28;20458;-83
2023/06/18 06:32:13;;;;;;;4.13;2.20;;;31.10;35.40;;;;;;5059149;28;20064;-82
2023/06/18 06:34:40;;;;;;;5.15;2.15;;;31.10;37.10;;;;;;5077818;28;20055;-81
2023/06/18 06:37:07;;;;;;;3.40;2.00;;;31.20;36.00;;;;;;5063348;28;20032;-81
2023/06/18 06:39:34;;;;;;;5.18;2.10;;;31.20;34.90;;;;;;5059190;28;20091;-81
2023/06/18 06:42:01;;;;;;;5.82;2.72;;;31.30;34.60;;;;;;5063874;28;20033;-82
2023/06/18 06:44:29;;;;;;;7.38;2.30;;;31.30;33.60;;;;;;5059472;28;20093;-82
2023/06/18 06:47:14;;;;;;;9.00;2.45;;;31.10;38.90;;;;;;5076284;28;20039;-79
2023/06/18 06:50:08;;;;;;;6.32;2.33;;;30.80;42.50;;;;;;5048100;28;20078;-80
2023/06/18 06:52:55;;;;;;;3.88;2.22;;;30.50;43.60;;;;;;5047495;28;20474;-76
2023/06/18 06:55:21;;;;;;;7.63;2.58;;;30.20;34.60;;;;;;5057118;28;20107;-83
2023/06/18 06:57:47;;;;;;;4.13;2.42;;;30.00;34.70;;;;;;5064725;28;20115;-81
2023/06/18 07:00:13;;;;;;;5.53;2.63;;;29.70;34.00;;;;;;5058457;28;20048;-82
2023/06/18 07:02:39;;;;;;;4.22;2.78;;;29.40;33.60;;;;;;5077885;28;20348;-81
2023/06/18 07:05:07;;;;;;;7.03;2.40;;;29.10;34.10;;;;;;5063900;28;20799;-81
2023/06/18 07:07:33;;;;;;;3.63;2.22;;;29.00;34.70;;;;;;5060103;28;20040;-77
2023/06/18 07:09:59;;;;;;;8.98;2.25;;;29.20;34.40;;;;;;5060742;28;20058;-79
2023/06/18 07:12:25;;;;;;;4.78;2.67;;;29.30;33.90;;;;;;5064148;28;20044;-81
2023/06/18 07:14:51;;;;;;;4.95;2.60;;;29.10;36.30;;;;;;5079718;28;20040;-80
2023/06/18 07:17:17;;;;;;;4.57;2.42;;;29.10;36.40;;;;;;5061820;28;20028;-80
2023/06/18 07:19:43;;;;;;;4.32;2.70;;;29.00;34.70;;;;;;5062069;28;20111;-81
2023/06/18 07:22:09;;;;;;;6.40;3.05;;;28.80;33.90;;;;;;5062320;28;20752;-83
2023/06/18 07:24:34;;;;;;;8.02;2.45;;;28.70;34.70;;;;;;5063627;28;20043;-78
2023/06/18 07:27:00;;;;;;;4.38;2.70;;;28.70;36.60;;;;;;5060884;28;20039;-78
2023/06/18 07:29:26;;;;;;;4.55;2.40;;;28.60;35.20;;;;;;5061657;28;20047;-78
2023/06/18 07:31:52;;;;;;;3.05;2.50;;;28.40;34.40;;;;;;5042984;28;20511;-79
2023/06/18 07:34:18;;;;;;;5.07;2.63;;;28.30;34.90;;;;;;5063162;28;20039;-79
2023/06/18 07:36:44;;;;;;;4.43;2.58;;;28.20;37.70;;;;;;5061704;28;20033;-80
2023/06/18 07:39:10;;;;;;;3.95;2.55;;;28.10;35.20;;;;;;5062513;28;20118;-79
2023/06/18 07:41:36;;;;;;;3.63;2.28;;;28.10;34.90;;;;;;5062300;28;20040;-78
2023/06/18 07:44:02;;;;;;;3.05;2.40;;;28.00;35.30;;;;;;5059403;28;20037;-77
2023/06/18 07:46:28;;;;;;;3.15;2.40;;;28.00;35.70;;;;;;5060303;28;20032;-79
2023/06/18 07:48:54;;;;;;;5.18;2.33;;;28.10;35.10;;;;;;5061173;28;20052;-79
2023/06/18 07:51:20;;;;;;;5.15;2.30;;;28.00;34.80;;;;;;5059983;28;20385;-78
2023/06/18 07:53:46;;;;;;;4.35;2.65;;;27.90;35.50;;;;;;5076467;28;20055;-78
2023/06/18 07:56:12;;;;;;;4.53;2.70;;;27.90;35.40;;;;;;5080761;28;20062;-78
2023/06/18 07:58:38;;;;;;;5.85;3.00;;;27.70;35.90;;;;;;5076482;28;20032;-79
2023/06/18 08:01:04;;;;;;;4.10;2.83;;;27.80;36.40;;;;;;5059756;28;20037;-80
2023/06/18 08:03:30;;;;;;;8.52;2.85;;;27.70;35.20;;;;;;5060125;28;20040;-80
2023/06/18 08:05:56;;;;;;;6.40;2.72;;;27.70;37.30;;;;;;5060796;28;20102;-76
2023/06/18 08:08:22;;;;;;;4.68;2.45;;;27.70;37.40;;;;;;5058595;28;20036;-78
2023/06/18 08:10:48;;;;;;;7.38;2.33;;;27.70;35.90;;;;;;5059709;28;20044;-78
2023/06/18 08:13:14;;;;;;;4.40;2.47;;;27.70;35.50;;;;;;5059002;28;20064;-78
2023/06/18 08:15:40;;;;;;;6.40;2.45;;;27.70;37.00;;;;;;5057594;28;20039;-77
2023/06/18 08:18:06;;;;;;;5.30;2.40;;;27.60;37.50;;;;;;5058936;28;20028;-77
2023/06/18 08:20:32;;;;;;;7.30;3.03;;;27.60;37.10;;;;;;5060522;28;20029;-78
2023/06/18 08:22:58;;;;;;;5.40;3.03;;;27.60;37.80;;;;;;5059418;28;20443;-78
2023/06/18 08:25:24;;;;;;;5.82;2.78;;;27.60;37.50;;;;;;5060644;28;20033;-78
2023/06/18 08:27:50;;;;;;;8.60;2.45;;;27.70;38.10;;;;;;5060311;28;20088;-78
2023/06/18 08:30:16;;;;;;;10.95;4.47;;;27.80;41.60;;;;;;5061033;28;20060;-81
2023/06/18 08:32:42;;;;;;;4.85;3.30;;;27.70;36.40;;;;;;5062721;28;20148;-85
2023/06/18 08:35:08;;;;;;;6.40;2.88;;;27.60;37.30;;;;;;5058152;28;20155;-83
2023/06/18 08:37:35;;;;;;;5.95;2.80;;;27.50;35.70;;;;;;5061798;28;20076;-84
2023/06/18 08:40:02;;;;;;;5.82;2.40;;;27.40;36.30;;;;;;5059890;28;20059;-84
2023/06/18 08:42:28;;;;;;;4.72;2.58;;;27.30;37.10;;;;;;5059863;28;20584;-86
2023/06/18 08:44:54;;;;;;;4.10;2.55;;;27.20;36.50;;;;;;5060412;28;20144;-91
2023/06/18 08:47:21;;;;;;;4.30;2.50;;;27.20;36.60;;;;;;5058847;28;20043;-89
2023/06/18 08:49:50;;;;;;;4.50;2.78;;;27.10;36.50;;;;;;5059425;28;20063;-87
2023/06/18 08:52:20;;;;;;;5.20;2.53;;;27.00;36.40;;;;;;5059962;28;20071;-87
2023/06/18 08:54:52;;;;;;;6.07;2.88;;;26.90;36.50;;;;;;5060107;28;20036;-84
2023/06/18 08:57:24;;;;;;;6.00;2.38;;;26.90;37.10;;;;;;5061232;28;20066;-82
2023/06/18 08:59:51;;;;;;;4.13;2.85;;;26.80;36.80;;;;;;5057657;28;20040;-77
2023/06/18 09:02:21;;;;;;;7.57;2.50;;;26.80;37.20;;;;;;5060729;28;20549;-78
2023/06/18 09:04:47;;;;;;;3.53;2.95;;;26.70;37.00;;;;;;5077560;28;20082;-77
2023/06/18 09:07:13;;;;;;;2.85;2.45;;;26.70;37.30;;;;;;5062437;28;20086;-77
2023/06/18 09:09:39;;;;;;;4.20;2.80;;;26.60;37.30;;;;;;5048503;28;20445;-79
2023/06/18 09:12:05;;;;;;;9.93;3.08;;;26.70;38.50;;;;;;5062852;28;20056;-77
2023/06/18 09:14:31;;;;;;;4.90;2.20;;;26.80;38.70;;;;;;5062223;28;20035;-78
2023/06/18 09:16:57;;;;;;;3.80;2.40;;;26.80;38.30;;;;;;5076598;28;20033;-77
2023/06/18 09:19:24;;;;;;;6.57;2.58;;;26.80;36.00;;;;;;5061106;28;20080;-76
2023/06/18 09:21:51;;;;;;;4.28;2.42;;;26.60;36.50;;;;;;5061354;28;20119;-77
2023/06/18 09:24:22;;;;;;;4.60;2.50;;;26.40;37.50;;;;;;5062568;28;20676;-78
2023/06/18 09:27:00;;;;;;;4.40;2.58;;;26.30;36.60;;;;;;5063242;28;20037;-76
2023/06/18 09:29:32;;;;;;;5.80;2.67;;;26.30;38.50;;;;;;5043546;28;20037;-80
2023/06/18 09:32:05;;;;;;;3.35;2.63;;;26.30;37.80;;;;;;5064202;28;20035;-81
2023/06/18 09:34:32;;;;;;;4.20;2.40;;;26.30;37.30;;;;;;5066192;28;20517;-79
2023/06/18 09:36:58;;;;;;;7.50;2.50;;;26.20;36.80;;;;;;5065764;28;20037;-80
2023/06/18 09:39:25;;;;;;;5.35;3.25;;;26.10;36.90;;;;;;5065323;28;20143;-82
2023/06/18 09:41:53;;;;;;;6.93;3.30;;;26.10;37.90;;;;;;5064044;28;20533;-80
2023/06/18 09:44:21;;;;;;;7.20;4.00;;;26.20;37.80;;;;;;5065518;28;20515;-79
2023/06/18 09:46:50;;;;;;;11.45;3.50;;;26.10;38.90;;;;;;5084914;28;20048;-81
2023/06/18 09:49:17;;;;;;;5.18;3.25;;;26.20;37.70;;;;;;5067500;28;20041;-82
2023/06/18 09:51:45;;;;;;;7.93;4.30;;;26.10;38.10;;;;;;5047894;28;20097;-77
2023/06/18 09:54:11;;;;;;;6.00;3.08;;;26.00;37.30;;;;;;5063315;28;20067;-77
2023/06/18 09:56:38;;;;;;;8.13;3.45;;;25.90;37.80;;;;;;5067097;28;20033;-77
2023/06/18 09:59:04;;;;;;;4.97;3.30;;;25.90;38.50;;;;;;5062051;28;20767;-80
2023/06/18 10:01:51;;;;;;;5.63;3.05;;;25.80;38.30;;;;;;5048960;28;20338;-79
2023/06/18 10:04:17;;;;;;;4.70;3.17;;;25.80;38.10;;;;;;5064198;28;20082;-82
2023/06/18 10:07:15;;;;;;;6.32;3.10;;;25.70;37.90;;;;;;5064122;28;20044;-79
2023/06/18 10:09:45;;;;;;;5.20;3.25;;;25.70;38.10;;;;;;5061074;28;20037;-81
2023/06/18 10:12:15;;;;;;;3.90;2.97;;;25.70;39.10;;;;;;5064723;28;20083;-85
2023/06/18 10:14:42;;;;;;;5.60;2.70;;;25.80;39.50;;;;;;5078694;28;20040;-82
2023/06/18 10:17:31;;;;;;;5.05;3.10;;;25.70;38.70;;;;;;5071321;28;20541;-86
2023/06/18 10:20:05;;;;;;;3.70;2.85;;;25.80;39.20;;;;;;5080949;28;20033;-87
2023/06/18 10:22:45;;;;;;;4.25;3.03;;;25.80;39.90;;;;;;5084759;28;20063;-86
2023/06/18 10:25:12;;;;;;;4.97;3.00;;;25.90;38.20;;;;;;5103172;28;20089;-88
2023/06/18 10:27:38;;;;;;;6.70;3.65;;;25.80;39.20;;;;;;5073517;28;20077;-83
2023/06/18 10:30:05;;;;;;;5.50;3.47;;;25.90;38.80;;;;;;5066118;28;20069;-86
2023/06/18 10:32:33;;;;;;;4.80;2.90;;;26.00;39.90;;;;;;5063319;28;20375;-88
2023/06/18 10:35:02;;;;;;;8.85;3.00;;;26.00;38.20;;;;;;5063235;28;20033;-84
2023/06/18 10:37:34;;;;;;;4.45;3.10;;;25.90;38.30;;;;;;5064800;28;20033;-84
2023/06/18 10:40:01;;;;;;;4.45;3.03;;;25.80;37.80;;;;;;5061387;28;20039;-82
2023/06/18 10:42:31;;;;;;;4.53;2.65;;;25.70;38.20;;;;;;5062673;28;20036;-85
2023/06/18 10:44:59;;;;;;;3.78;3.05;;;25.70;37.80;;;;;;5060826;28;20530;-81
2023/06/18 10:47:29;;;;;;;4.95;2.67;;;25.70;38.40;;;;;;5061605;28;20104;-84
2023/06/18 10:50:07;;;;;;;3.90;2.47;;;25.60;38.00;;;;;;5061413;28;20041;-83
2023/06/18 10:52:44;;;;;;;3.17;2.72;;;25.50;37.90;;;;;;5061545;28;20043;-80
2023/06/18 10:55:24;;;;;;;7.32;2.78;;;25.60;38.00;;;;;;5060430;28;20037;-83
2023/06/18 10:57:57;;;;;;;5.68;3.00;;;25.70;39.50;;;;;;5061646;28;20326;-84
2023/06/18 11:00:33;;;;;;;4.15;3.00;;;25.80;38.50;;;;;;5063112;28;20059;-85
2023/06/18 11:03:13;;;;;;;8.23;3.85;;;25.90;39.20;;;;;;5062715;28;20054;-85
2023/06/18 11:05:44;;;;;;;11.18;5.75;;;25.90;38.50;;;;;;5063047;28;20384;-82
2023/06/18 11:08:13;;;;;;;7.00;3.63;;;26.00;39.00;;;;;;5060795;28;20041;-84
2023/06/18 11:10:49;;;;;;;3.17;2.88;;;26.00;38.70;;;;;;5062013;28;20503;-84
2023/06/18 11:13:16;;;;;;;4.13;2.55;;;26.00;38.20;;;;;;5059702;28;20036;-84
2023/06/18 11:15:59;;;;;;;3.42;2.50;;;25.90;37.90;;;;;;5063611;28;20253;-83
2023/06/18 11:18:26;;;;;;;4.75;3.15;;;25.80;38.40;;;;;;5062833;28;20473;-83
2023/06/18 11:20:55;;;;;;;4.13;2.88;;;25.80;38.50;;;;;;5063747;28;20090;-84
2023/06/18 11:23:22;;;;;;;4.07;2.60;;;25.70;38.30;;;;;;5061071;28;20072;-83
2023/06/18 11:25:50;;;;;;;5.70;3.00;;;25.70;38.50;;;;;;5061010;28;20491;-83
2023/06/18 11:28:16;;;;;;;4.57;2.85;;;25.70;38.60;;;;;;5062469;28;20032;-83
2023/06/18 11:30:52;;;;;;;5.15;2.95;;;25.70;38.30;;;;;;5061266;28;20492;-84
2023/06/18 11:33:25;;;;;;;5.55;3.30;;;25.70;38.90;;;;;;5059390;28;20036;-83
2023/06/18 11:35:53;;;;;;;3.58;2.92;;;25.70;38.60;;;;;;5062183;28;20462;-83
2023/06/18 11:38:20;;;;;;;4.05;3.30;;;25.80;39.90;;;;;;5059812;28;20036;-81
2023/06/18 11:40:53;;;;;;;6.13;3.08;;;25.80;39.70;;;;;;5061019;28;20075;-82
2023/06/18 11:43:20;;;;;;;4.30;2.88;;;25.90;39.40;;;;;;5059232;28;20377;-84
2023/06/18 11:45:53;;;;;;;5.22;2.85;;;25.90;37.80;;;;;;5061617;28;20068;-81
2023/06/18 11:48:22;;;;;;;3.67;3.03;;;25.80;38.30;;;;;;5060242;28;20511;-84
2023/06/18 11:50:53;;;;;;;5.03;2.65;;;25.80;38.80;;;;;;5060811;28;20098;-84
2023/06/18 11:53:22;;;;;;;3.65;2.83;;;25.90;39.60;;;;;;5063211;28;20039;-82
2023/06/18 11:55:52;;;;;;;3.78;2.70;;;25.80;38.50;;;;;;5062087;28;20558;-84
2023/06/18 11:58:21;;;;;;;3.85;2.90;;;25.70;38.50;;;;;;5060204;28;20419;-84
2023/06/18 12:00:47;;;;;;;5.03;3.13;;;25.70;38.40;;;;;;5059813;28;20109;-83
2023/06/18 12:03:13;;;;;;;4.97;3.00;;;25.70;38.50;;;;;;5060632;28;20025;-84
2023/06/18 12:05:39;;;;;;;6.32;2.90;;;25.70;38.80;;;;;;5059068;28;20028;-83
2023/06/18 12:08:13;;;;;;;5.03;2.70;;;25.70;39.20;;;;;;5059863;28;20083;-84
2023/06/18 12:10:42;;;;;;;3.15;2.63;;;25.80;39.30;;;;;;5059547;28;20053;-83
2023/06/18 12:13:24;;;;;;;4.85;3.13;;;25.80;39.50;;;;;;5060734;28;20032;-84
2023/06/18 12:15:59;;;;;;;4.82;2.67;;;25.80;38.90;;;;;;5063139;28;20044;-83
2023/06/18 12:18:28;;;;;;;;;;;25.90;39.50;;;;;;5062873;28;20040;-85
2023/06/18 12:20:55;;;;;;;3.58;2.55;;;25.90;39.60;;;;;;5059984;28;19916;-80
2023/06/18 12:23:22;;;;;;;5.25;2.80;;;25.90;39.80;;;;;;5059901;28;20047;-84
2023/06/18 12:25:48;;;;;;;5.65;2.72;;;26.00;40.00;;;;;;5059564;28;20098;-83
2023/06/18 12:28:15;;;;;;;4.68;2.72;;;26.00;40.20;;;;;;5057974;28;20033;-81
2023/06/18 12:30:42;;;;;;;5.03;2.80;;;26.00;39.90;;;;;;5060185;28;20036;-84
2023/06/18 12:33:12;;;;;;;4.07;2.47;;;26.00;39.30;;;;;;5059464;28;20415;-84
2023/06/18 12:35:45;;;;;;;4.82;2.50;;;26.00;39.90;;;;;;5058869;28;20406;-83
2023/06/18 12:38:11;;;;;;;4.30;2.60;;;26.00;39.50;;;;;;5059991;28;20040;-84
2023/06/18 12:40:51;;;;;;;4.75;2.72;;;26.00;39.40;;;;;;5060532;28;20396;-82
2023/06/18 12:43:19;;;;;;;4.28;2.53;;;26.00;39.00;;;;;;5062261;28;20033;-81
2023/06/18 12:45:47;;;;;;;3.88;2.70;;;26.00;38.90;;;;;;5059601;28;20079;-84
2023/06/18 12:48:15;;;;;;;4.10;2.60;;;26.00;38.90;;;;;;5058168;28;20122;-80
2023/06/18 12:50:50;;;;;;;3.97;2.33;;;25.90;38.30;;;;;;5066510;28;20037;-82
2023/06/18 12:53:17;;;;;;;4.88;2.42;;;25.90;38.90;;;;;;5075189;28;20132;-80
2023/06/18 12:55:51;;;;;;;4.63;2.63;;;26.00;39.70;;;;;;5072315;28;20071;-80